createdAt,value
2022-10-05T00:00:02.050Z,2.3
2022-10-05T00:01:17.357Z,2
2022-10-05T00:02:33.651Z,2
2022-10-05T00:03:49.948Z,1.9
2022-10-05T00:05:06.239Z,1.8
2022-10-05T00:06:22.549Z,2.2
2022-10-05T00:07:38.830Z,2.1
2022-10-05T00:08:55.123Z,2
2022-10-05T00:10:11.409Z,2.3
2022-10-05T00:11:27.712Z,2.7
2022-10-05T00:12:44.002Z,2.6
2022-10-05T00:14:00.293Z,2
2022-10-05T00:15:16.584Z,1.9
2022-10-05T00:16:32.884Z,2.3
2022-10-05T00:17:48.187Z,1.9
2022-10-05T00:19:04.483Z,2
2022-10-05T00:20:20.781Z,2.2
2022-10-05T00:21:37.070Z,2.1
2022-10-05T00:22:53.367Z,2
2022-10-05T00:24:09.658Z,1.9
2022-10-05T00:25:25.953Z,2.5
2022-10-05T00:26:42.246Z,1.9
2022-10-05T00:27:58.544Z,1.9
2022-10-05T00:29:14.846Z,2.3
2022-10-05T00:30:31.124Z,2
2022-10-05T00:31:47.420Z,2.5
2022-10-05T00:33:03.709Z,1.8
2022-10-05T00:34:19.024Z,1.9
2022-10-05T00:35:35.314Z,2.5
2022-10-05T00:36:51.606Z,1.9
2022-10-05T00:38:07.908Z,1.8
2022-10-05T00:39:24.200Z,1.8
2022-10-05T00:40:40.484Z,1.8
2022-10-05T00:41:56.786Z,1.7
2022-10-05T00:43:13.073Z,1.9
2022-10-05T00:44:29.380Z,1.9
2022-10-05T00:45:45.661Z,2.1
2022-10-05T00:47:01.967Z,1.7
2022-10-05T00:48:18.255Z,1.9
2022-10-05T00:49:34.538Z,1.7
2022-10-05T00:50:49.850Z,1.8
2022-10-05T00:52:06.157Z,1.7
2022-10-05T00:53:22.443Z,1.6
2022-10-05T00:54:38.739Z,1.8
2022-10-05T00:55:55.024Z,2.3
2022-10-05T00:57:11.316Z,2.2
2022-10-05T00:58:27.610Z,2
2022-10-05T00:59:43.917Z,1.9
2022-10-05T01:01:00.197Z,1.8
2022-10-05T01:02:16.488Z,2.1
2022-10-05T01:03:32.782Z,2
2022-10-05T01:04:49.076Z,1.8
2022-10-05T01:06:05.366Z,2
2022-10-05T01:07:20.687Z,1.8
2022-10-05T01:08:36.972Z,1.8
2022-10-05T01:09:53.263Z,1.8
2022-10-05T01:11:09.576Z,1.8
2022-10-05T01:12:25.850Z,1.8
2022-10-05T01:13:42.154Z,1.8
2022-10-05T01:14:58.452Z,1.9
2022-10-05T01:16:14.735Z,1.8
2022-10-05T01:17:31.032Z,1.7
2022-10-05T01:18:47.318Z,2
2022-10-05T01:20:03.622Z,1.9
2022-10-05T01:21:19.915Z,1.9
2022-10-05T01:22:36.204Z,2.1
2022-10-05T01:23:51.515Z,2
2022-10-05T01:25:07.804Z,1.9
2022-10-05T01:26:24.102Z,1.9
2022-10-05T01:27:40.393Z,1.8
2022-10-05T01:28:56.693Z,1.9
2022-10-05T01:30:12.977Z,1.7
2022-10-05T01:31:29.273Z,1.9
2022-10-05T01:32:45.562Z,1.9
2022-10-05T01:34:01.856Z,1.9
2022-10-05T01:35:18.147Z,1.9
2022-10-05T01:36:34.447Z,1.9
2022-10-05T01:37:50.742Z,1.8
2022-10-05T01:39:07.032Z,1.8
2022-10-05T01:40:22.344Z,2
2022-10-05T01:41:38.632Z,1.8
2022-10-05T01:42:54.936Z,1.7
2022-10-05T01:44:11.222Z,1.9
2022-10-05T01:45:27.512Z,2.3
2022-10-05T01:46:43.818Z,1.8
2022-10-05T01:48:00.100Z,5.8
2022-10-05T01:49:16.405Z,17.7
2022-10-05T01:50:32.694Z,13.1
2022-10-05T01:51:48.983Z,5.1
2022-10-05T01:53:05.286Z,3.2
2022-10-05T01:54:21.571Z,3.8
2022-10-05T01:55:37.866Z,3
2022-10-05T01:56:53.173Z,2.6
2022-10-05T01:58:09.469Z,2.4
2022-10-05T01:59:25.764Z,2.1
2022-10-05T02:00:42.060Z,2.5
2022-10-05T02:01:58.345Z,2
2022-10-05T02:03:14.637Z,2
2022-10-05T02:04:30.943Z,2
2022-10-05T02:05:47.224Z,2
2022-10-05T02:07:03.521Z,2.2
2022-10-05T02:08:19.823Z,1.9
2022-10-05T02:09:36.115Z,2
2022-10-05T02:10:52.400Z,1.6
2022-10-05T02:12:08.692Z,2.1
2022-10-05T02:13:23.998Z,2.2
2022-10-05T02:14:40.294Z,1.9
2022-10-05T02:15:56.591Z,2.7
2022-10-05T02:17:12.886Z,2.3
2022-10-05T02:18:29.188Z,2.7
2022-10-05T02:19:45.479Z,2.2
2022-10-05T02:21:01.761Z,2
2022-10-05T02:22:18.066Z,2.1
2022-10-05T02:23:34.356Z,2.3
2022-10-05T02:24:50.000Z,2
2022-10-05T02:26:06.950Z,2.1
2022-10-05T02:27:23.232Z,2.1
2022-10-05T02:28:39.537Z,2.1
2022-10-05T02:29:54.843Z,2
2022-10-05T02:31:11.126Z,2.6
2022-10-05T02:32:27.430Z,1.9
2022-10-05T02:33:43.727Z,2.5
2022-10-05T02:35:00.016Z,3.9
2022-10-05T02:36:16.310Z,4.1
2022-10-05T02:37:32.599Z,3.9
2022-10-05T02:38:48.890Z,2.9
2022-10-05T02:40:05.188Z,3.6
2022-10-05T02:41:21.481Z,2.8
2022-10-05T02:42:37.782Z,2.6
2022-10-05T02:43:54.062Z,2.2
2022-10-05T02:45:10.366Z,2.6
2022-10-05T02:46:25.667Z,2
2022-10-05T02:47:41.967Z,2.2
2022-10-05T02:48:58.255Z,2.1
2022-10-05T02:50:14.553Z,2.2
2022-10-05T02:51:30.841Z,2.3
2022-10-05T02:52:47.143Z,2.2
2022-10-05T02:54:02.449Z,1.9
2022-10-05T02:55:18.742Z,2.1
2022-10-05T02:56:35.048Z,2.1
2022-10-05T02:57:51.334Z,2.3
2022-10-05T02:59:07.636Z,2.1
2022-10-05T03:00:23.920Z,2.5
2022-10-05T03:01:40.209Z,2.1
2022-10-05T03:02:56.507Z,2.2
2022-10-05T03:04:12.796Z,2.2
2022-10-05T03:05:29.100Z,2
2022-10-05T03:06:45.389Z,2.1
2022-10-05T03:08:01.679Z,2.3
2022-10-05T03:09:17.981Z,1.9
2022-10-05T03:10:33.298Z,2.1
2022-10-05T03:11:49.587Z,2.2
2022-10-05T03:13:05.876Z,2.2
2022-10-05T03:14:22.180Z,2.5
2022-10-05T03:15:38.468Z,2.2
2022-10-05T03:16:54.748Z,2.4
2022-10-05T03:18:11.049Z,2.4
2022-10-05T03:19:27.341Z,1.8
2022-10-05T03:20:43.634Z,2.4
2022-10-05T03:21:59.923Z,2.1
2022-10-05T03:23:16.221Z,2.2
2022-10-05T03:24:32.515Z,2.4
2022-10-05T03:25:48.801Z,2
2022-10-05T03:27:04.111Z,2.3
2022-10-05T03:28:20.411Z,2.3
2022-10-05T03:29:36.700Z,2.3
2022-10-05T03:30:53.007Z,2.1
2022-10-05T03:32:09.296Z,2.1
2022-10-05T03:33:25.585Z,2.4
2022-10-05T03:34:41.876Z,2.2
2022-10-05T03:35:58.187Z,2.3
2022-10-05T03:37:14.461Z,2.7
2022-10-05T03:38:30.755Z,2.1
2022-10-05T03:39:47.067Z,2.3
2022-10-05T03:41:03.344Z,2.2
2022-10-05T03:42:19.641Z,2.4
2022-10-05T03:43:34.952Z,2.4
2022-10-05T03:44:51.248Z,2.3
2022-10-05T03:46:07.546Z,2.2
2022-10-05T03:47:23.844Z,2.3
2022-10-05T03:48:40.141Z,2.5
2022-10-05T03:49:56.425Z,2.2
2022-10-05T03:51:12.723Z,2.2
2022-10-05T03:52:29.010Z,2.1
2022-10-05T03:53:45.305Z,2.3
2022-10-05T03:55:01.594Z,2.5
2022-10-05T03:56:17.892Z,2.6
2022-10-05T03:57:34.178Z,2.4
2022-10-05T03:58:50.478Z,2.2
2022-10-05T04:00:05.783Z,2.1
2022-10-05T04:01:22.094Z,2.5
2022-10-05T04:02:38.379Z,2.1
2022-10-05T04:03:54.672Z,2.7
2022-10-05T04:05:10.960Z,2.5
2022-10-05T04:06:27.258Z,2.1
2022-10-05T04:07:43.549Z,2.7
2022-10-05T04:08:59.838Z,2.5
2022-10-05T04:10:16.137Z,2.4
2022-10-05T04:11:32.434Z,2.3
2022-10-05T04:12:48.740Z,2.4
2022-10-05T04:14:05.019Z,2.4
2022-10-05T04:15:21.310Z,2.6
2022-10-05T04:16:36.619Z,2.6
2022-10-05T04:17:52.920Z,2.7
2022-10-05T04:19:09.208Z,2.5
2022-10-05T04:20:25.500Z,2.4
2022-10-05T04:21:41.802Z,2.6
2022-10-05T04:22:58.087Z,2.3
2022-10-05T04:24:14.389Z,2.3
2022-10-05T04:25:30.689Z,2.6
2022-10-05T04:26:46.971Z,2.3
2022-10-05T04:28:03.267Z,3.1
2022-10-05T04:29:19.564Z,2.3
2022-10-05T04:30:35.852Z,2.3
2022-10-05T04:31:52.152Z,2.5
2022-10-05T04:33:07.463Z,2.6
2022-10-05T04:34:23.754Z,2.5
2022-10-05T04:35:40.047Z,2.5
2022-10-05T04:36:56.345Z,2.9
2022-10-05T04:38:12.644Z,2.5
2022-10-05T04:39:28.924Z,2.5
2022-10-05T04:40:45.219Z,2.4
2022-10-05T04:42:01.524Z,2.5
2022-10-05T04:43:17.815Z,2.4
2022-10-05T04:44:34.106Z,2.7
2022-10-05T04:45:50.399Z,2.7
2022-10-05T04:47:06.700Z,2.4
2022-10-05T04:48:22.978Z,2.5
2022-10-05T04:49:38.301Z,2.8
2022-10-05T04:50:54.588Z,2.9
2022-10-05T04:52:10.824Z,2.5
2022-10-05T04:53:27.116Z,2.7
2022-10-05T04:54:43.368Z,2.2
2022-10-05T04:55:59.613Z,2.9
2022-10-05T04:57:15.910Z,2.7
2022-10-05T04:58:32.205Z,2.4
2022-10-05T04:59:48.458Z,2.4
2022-10-05T05:01:04.689Z,2.3
2022-10-05T05:02:20.000Z,2.7
2022-10-05T05:03:37.180Z,2.2
2022-10-05T05:04:53.417Z,3.2
2022-10-05T05:06:08.677Z,2.5
2022-10-05T05:07:24.914Z,2.4
2022-10-05T05:08:41.153Z,2.3
2022-10-05T05:09:57.404Z,2.5
2022-10-05T05:11:13.649Z,2.4
2022-10-05T05:12:29.878Z,2.5
2022-10-05T05:13:46.127Z,2.4
2022-10-05T05:15:02.352Z,2.4
2022-10-05T05:16:18.606Z,2.4
2022-10-05T05:17:34.840Z,2.6
2022-10-05T05:18:51.076Z,2.3
2022-10-05T05:20:07.323Z,2.3
2022-10-05T05:21:23.571Z,2.6
2022-10-05T05:22:38.823Z,2.5
2022-10-05T05:23:55.050Z,2.7
2022-10-05T05:25:11.299Z,2.7
2022-10-05T05:26:27.537Z,2.6
2022-10-05T05:27:43.768Z,2.6
2022-10-05T05:29:00.020Z,2.4
2022-10-05T05:30:16.266Z,2.8
2022-10-05T05:31:32.488Z,2.4
2022-10-05T05:32:48.736Z,2.5
2022-10-05T05:34:04.982Z,2.5
2022-10-05T05:35:21.210Z,2.6
2022-10-05T05:36:37.454Z,2.6
2022-10-05T05:37:53.686Z,2.8
2022-10-05T05:39:08.946Z,2.7
2022-10-05T05:40:25.197Z,2.6
2022-10-05T05:41:41.423Z,2.9
2022-10-05T05:42:57.669Z,2.5
2022-10-05T05:44:13.903Z,2.4
2022-10-05T05:45:30.150Z,2.4
2022-10-05T05:46:46.386Z,2.6
2022-10-05T05:48:02.624Z,2.4
2022-10-05T05:49:18.859Z,2.4
2022-10-05T05:50:35.101Z,2.7
2022-10-05T05:51:51.339Z,2.6
2022-10-05T05:53:07.586Z,2.5
2022-10-05T05:54:23.820Z,2.3
2022-10-05T05:55:39.079Z,2.9
2022-10-05T05:56:55.319Z,2.8
2022-10-05T05:58:11.559Z,2.4
2022-10-05T05:59:27.794Z,3
2022-10-05T06:00:44.033Z,2.7
2022-10-05T06:02:00.277Z,3.1
2022-10-05T06:03:16.514Z,3.1
2022-10-05T06:04:32.766Z,2.6
2022-10-05T06:05:48.999Z,3.1
2022-10-05T06:07:05.251Z,2.5
2022-10-05T06:08:21.481Z,2.5
2022-10-05T06:09:37.715Z,2.7
2022-10-05T06:10:53.955Z,2.5
2022-10-05T06:12:09.207Z,2.6
2022-10-05T06:13:25.454Z,2.6
2022-10-05T06:14:41.687Z,2.7
2022-10-05T06:15:57.935Z,2.5
2022-10-05T06:17:14.166Z,2.5
2022-10-05T06:18:30.414Z,3
2022-10-05T06:19:46.647Z,2.7
2022-10-05T06:21:02.893Z,2.7
2022-10-05T06:22:19.128Z,2.5
2022-10-05T06:23:35.366Z,3
2022-10-05T06:24:51.622Z,2.7
2022-10-05T06:26:07.850Z,2.6
2022-10-05T06:27:24.087Z,2.7
2022-10-05T06:28:39.343Z,2.4
2022-10-05T06:29:55.587Z,2.5
2022-10-05T06:31:11.818Z,2.6
2022-10-05T06:32:28.070Z,2.6
2022-10-05T06:33:44.300Z,2.6
2022-10-05T06:35:00.544Z,2.5
2022-10-05T06:36:16.781Z,2.4
2022-10-05T06:37:33.022Z,2.8
2022-10-05T06:38:49.254Z,2.7
2022-10-05T06:40:05.502Z,2.5
2022-10-05T06:41:21.742Z,2.6
2022-10-05T06:42:37.973Z,2.7
2022-10-05T06:43:54.213Z,2.6
2022-10-05T06:45:09.472Z,2.6
2022-10-05T06:46:25.722Z,2.4
2022-10-05T06:47:41.960Z,3
2022-10-05T06:48:58.193Z,2.5
2022-10-05T06:50:14.432Z,2.7
2022-10-05T06:51:30.665Z,2.7
2022-10-05T06:52:46.906Z,2.5
2022-10-05T06:54:03.145Z,2.7
2022-10-05T06:55:19.398Z,2.9
2022-10-05T06:56:35.625Z,2.4
2022-10-05T06:57:51.868Z,2.7
2022-10-05T06:59:08.112Z,2.7
2022-10-05T07:00:24.350Z,2.4
2022-10-05T07:01:39.611Z,2.6
2022-10-05T07:02:55.851Z,2.6
2022-10-05T07:04:12.072Z,2.6
2022-10-05T07:05:28.329Z,2.5
2022-10-05T07:06:44.570Z,2.4
2022-10-05T07:08:00.808Z,2.4
2022-10-05T07:09:16.069Z,2.1
2022-10-05T07:10:32.298Z,2.5
2022-10-05T07:11:48.534Z,2.8
2022-10-05T07:13:04.789Z,2.5
2022-10-05T07:14:21.027Z,2.5
2022-10-05T07:15:37.258Z,2.3
2022-10-05T07:16:53.488Z,2.4
2022-10-05T07:18:09.734Z,2.4
2022-10-05T07:19:25.967Z,2.6
2022-10-05T07:20:42.208Z,2.8
2022-10-05T07:21:58.446Z,2.5
2022-10-05T07:23:14.692Z,2.7
2022-10-05T07:24:30.926Z,2.4
2022-10-05T07:25:46.177Z,2.3
2022-10-05T07:27:02.433Z,2.6
2022-10-05T07:28:18.667Z,2.5
2022-10-05T07:29:34.905Z,2.9
2022-10-05T07:30:51.140Z,2.5
2022-10-05T07:32:07.379Z,2.4
2022-10-05T07:33:23.619Z,2.7
2022-10-05T07:34:39.851Z,2.4
2022-10-05T07:35:56.089Z,2.5
2022-10-05T07:37:12.327Z,2.4
2022-10-05T07:38:28.575Z,2.6
2022-10-05T07:39:44.808Z,2.6
2022-10-05T07:41:01.048Z,2.5
2022-10-05T07:42:16.309Z,2.5
2022-10-05T07:43:32.539Z,2.4
2022-10-05T07:44:48.776Z,2.5
2022-10-05T07:46:05.024Z,2.5
2022-10-05T07:47:21.250Z,2.6
2022-10-05T07:48:37.491Z,2.6
2022-10-05T07:49:53.730Z,2.3
2022-10-05T07:51:09.969Z,2.3
2022-10-05T07:52:26.211Z,2.6
2022-10-05T07:53:42.460Z,2.3
2022-10-05T07:54:58.690Z,2.1
2022-10-05T07:56:14.922Z,2.1
2022-10-05T07:57:31.176Z,2.3
2022-10-05T07:58:46.422Z,2.4
2022-10-05T08:00:02.656Z,2.9
2022-10-05T08:01:18.900Z,2.3
2022-10-05T08:02:35.137Z,2.3
2022-10-05T08:03:51.374Z,2.2
2022-10-05T08:05:07.610Z,2.1
2022-10-05T08:06:23.845Z,2.4
2022-10-05T08:07:40.104Z,2.2
2022-10-05T08:08:56.327Z,2.3
2022-10-05T08:10:12.580Z,2.9
2022-10-05T08:11:28.802Z,2.2
2022-10-05T08:12:45.047Z,2.6
2022-10-05T08:14:01.275Z,2.2
2022-10-05T08:15:16.546Z,2.2
2022-10-05T08:16:32.768Z,2.5
2022-10-05T08:17:49.007Z,2.5
2022-10-05T08:19:05.258Z,2.1
2022-10-05T08:20:21.494Z,2.2
2022-10-05T08:21:37.726Z,2.4
2022-10-05T08:24:10.213Z,2.1
2022-10-05T08:25:26.450Z,2.3
2022-10-05T08:26:42.683Z,2.3
2022-10-05T08:27:58.931Z,2.6
2022-10-05T08:29:15.161Z,2.3
2022-10-05T08:30:31.395Z,2.1
2022-10-05T08:31:46.662Z,2.4
2022-10-05T08:33:02.893Z,2.1
2022-10-05T08:34:19.137Z,2.1
2022-10-05T08:35:35.365Z,1.9
2022-10-05T08:36:51.606Z,2.3
2022-10-05T08:38:07.846Z,2.1
2022-10-05T08:39:24.082Z,2.1
2022-10-05T08:40:40.315Z,2.2
2022-10-05T08:41:56.562Z,2
2022-10-05T08:43:12.792Z,2.3
2022-10-05T08:44:29.043Z,3
2022-10-05T08:45:45.280Z,2.3
2022-10-05T08:47:01.507Z,2.5
2022-10-05T08:48:16.775Z,2.5
2022-10-05T08:49:33.016Z,2.4
2022-10-05T08:50:49.248Z,2.3
2022-10-05T08:52:05.476Z,2.2
2022-10-05T08:53:21.731Z,2.3
2022-10-05T08:54:37.968Z,2.1
2022-10-05T08:55:54.215Z,2
2022-10-05T08:57:10.432Z,2.1
2022-10-05T08:58:26.683Z,2.2
2022-10-05T08:59:42.917Z,2.5
2022-10-05T09:00:59.148Z,2.4
2022-10-05T09:02:15.393Z,2.3
2022-10-05T09:03:31.633Z,2.4
2022-10-05T09:04:46.879Z,2.2
2022-10-05T09:06:03.122Z,2.4
2022-10-05T09:07:19.369Z,2.4
2022-10-05T09:08:35.600Z,2.3
2022-10-05T09:09:51.841Z,2.3
2022-10-05T09:11:08.087Z,2.1
2022-10-05T09:12:24.319Z,2.4
2022-10-05T09:13:40.558Z,2.3
2022-10-05T09:14:56.796Z,2.5
2022-10-05T09:16:13.035Z,2.4
2022-10-05T09:17:29.274Z,2.6
2022-10-05T09:18:45.511Z,2.3
2022-10-05T09:20:01.744Z,2.4
2022-10-05T09:21:17.012Z,2.4
2022-10-05T09:22:33.242Z,2.3
2022-10-05T09:23:49.476Z,2.3
2022-10-05T09:25:05.710Z,2.5
2022-10-05T09:26:21.950Z,2.5
2022-10-05T09:27:38.192Z,2.4
2022-10-05T09:28:54.440Z,2.3
2022-10-05T09:30:10.671Z,3.1
2022-10-05T09:31:26.913Z,2.4
2022-10-05T09:32:43.150Z,2.5
2022-10-05T09:33:59.387Z,2.4
2022-10-05T09:35:15.625Z,2.9
2022-10-05T09:36:31.862Z,2.4
2022-10-05T09:37:47.119Z,2.5
2022-10-05T09:39:03.358Z,2.3
2022-10-05T09:40:19.596Z,2.2
2022-10-05T09:41:35.829Z,2.8
2022-10-05T09:42:52.078Z,2.2
2022-10-05T09:44:08.322Z,2.4
2022-10-05T09:45:24.549Z,2.3
2022-10-05T09:46:40.784Z,2.4
2022-10-05T09:47:57.020Z,2.3
2022-10-05T09:49:13.271Z,3
2022-10-05T09:50:29.500Z,2.3
2022-10-05T09:51:45.737Z,2.7
2022-10-05T09:53:01.984Z,2.5
2022-10-05T09:54:17.233Z,2.4
2022-10-05T09:55:33.472Z,2.5
2022-10-05T09:56:49.705Z,2.6
2022-10-05T09:58:05.945Z,2.4
2022-10-05T09:59:22.196Z,2.3
2022-10-05T10:00:38.422Z,2.6
2022-10-05T10:01:54.679Z,2.4
2022-10-05T10:03:10.904Z,2.3
2022-10-05T10:04:27.141Z,2.8
2022-10-05T10:05:43.397Z,2.4
2022-10-05T10:06:59.631Z,2.5
2022-10-05T10:08:15.857Z,2.9
2022-10-05T10:09:32.096Z,2.3
2022-10-05T10:10:47.367Z,2.4
2022-10-05T10:12:03.598Z,2.3
2022-10-05T10:13:19.838Z,2.6
2022-10-05T10:14:36.084Z,2.5
2022-10-05T10:15:52.314Z,2.6
2022-10-05T10:17:08.573Z,2.9
2022-10-05T10:18:24.799Z,2.6
2022-10-05T10:19:41.036Z,2.8
2022-10-05T10:20:57.276Z,2.5
2022-10-05T10:22:13.515Z,3
2022-10-05T10:23:29.769Z,2.4
2022-10-05T10:24:46.008Z,2.7
2022-10-05T10:26:02.233Z,2.8
2022-10-05T10:27:17.506Z,2.5
2022-10-05T10:28:33.746Z,2.5
2022-10-05T10:29:49.978Z,2.7
2022-10-05T10:31:06.206Z,2.9
2022-10-05T10:32:22.447Z,2.5
2022-10-05T10:33:38.687Z,2.5
2022-10-05T10:34:54.938Z,2.4
2022-10-05T10:36:11.169Z,2.6
2022-10-05T10:37:27.406Z,2.5
2022-10-05T10:38:43.661Z,2.5
2022-10-05T10:39:59.888Z,2.5
2022-10-05T10:41:16.130Z,2.8
2022-10-05T10:42:32.376Z,2.7
2022-10-05T10:43:47.616Z,2.7
2022-10-05T10:45:03.862Z,2.7
2022-10-05T10:46:20.104Z,2.7
2022-10-05T10:47:36.340Z,2.9
2022-10-05T10:48:52.591Z,3.1
2022-10-05T10:50:08.828Z,2.5
2022-10-05T10:51:25.072Z,2.4
2022-10-05T10:52:41.300Z,2.6
2022-10-05T10:53:57.536Z,2.7
2022-10-05T10:55:13.780Z,2.5
2022-10-05T10:56:30.017Z,2.9
2022-10-05T10:57:46.273Z,2.8
2022-10-05T10:59:02.497Z,2.8
2022-10-05T11:00:17.751Z,2.7
2022-10-05T11:01:33.998Z,2.6
2022-10-05T11:02:50.233Z,2.6
2022-10-05T11:04:06.476Z,2.7
2022-10-05T11:05:22.711Z,2.6
2022-10-05T11:06:38.949Z,2.6
2022-10-05T11:07:55.200Z,2.4
2022-10-05T11:09:11.430Z,2.2
2022-10-05T11:10:27.670Z,2.6
2022-10-05T11:11:43.904Z,2.4
2022-10-05T11:13:00.142Z,2.6
2022-10-05T11:14:16.391Z,2.5
2022-10-05T11:15:32.633Z,2.4
2022-10-05T11:16:47.875Z,2.1
2022-10-05T11:18:04.112Z,2.3
2022-10-05T11:19:20.361Z,2.1
2022-10-05T11:20:36.599Z,2.2
2022-10-05T11:21:52.837Z,2.1
2022-10-05T11:23:09.077Z,2.3
2022-10-05T11:24:24.327Z,2.3
2022-10-05T11:25:40.584Z,2.6
2022-10-05T11:26:56.810Z,2.4
2022-10-05T11:28:13.051Z,2.4
2022-10-05T11:29:29.294Z,2.3
2022-10-05T11:30:45.529Z,2.7
2022-10-05T11:32:01.772Z,2.4
2022-10-05T11:33:18.011Z,2.4
2022-10-05T11:34:34.244Z,2.4
2022-10-05T11:35:50.489Z,2.4
2022-10-05T11:37:06.724Z,2.3
2022-10-05T11:38:22.967Z,2.1
2022-10-05T11:39:39.211Z,2.3
2022-10-05T11:40:54.456Z,2.2
2022-10-05T11:42:10.697Z,2.3
2022-10-05T11:43:26.940Z,2.1
2022-10-05T11:44:43.174Z,2.3
2022-10-05T11:45:59.412Z,2
2022-10-05T11:47:15.666Z,2.3
2022-10-05T11:48:31.903Z,2.3
2022-10-05T11:49:48.133Z,2.1
2022-10-05T11:51:04.378Z,2.1
2022-10-05T11:52:20.628Z,2
2022-10-05T11:53:36.848Z,2
2022-10-05T11:54:53.106Z,2.2
2022-10-05T11:56:09.328Z,1.8
2022-10-05T11:57:24.594Z,2
2022-10-05T11:58:40.833Z,2.1
2022-10-05T11:59:57.066Z,2.1
2022-10-05T12:01:13.317Z,1.9
2022-10-05T12:02:29.551Z,1.9
2022-10-05T12:03:45.790Z,2
2022-10-05T12:05:02.026Z,2
2022-10-05T12:06:18.263Z,1.9
2022-10-05T12:07:34.514Z,2.2
2022-10-05T12:08:50.745Z,1.9
2022-10-05T12:10:07.002Z,1.8
2022-10-05T12:11:23.224Z,1.9
2022-10-05T12:12:39.463Z,1.9
2022-10-05T12:13:54.733Z,1.9
2022-10-05T12:15:10.972Z,2.4
2022-10-05T12:16:27.212Z,2
2022-10-05T12:17:43.453Z,2.1
2022-10-05T12:18:59.678Z,1.9
2022-10-05T12:20:15.923Z,2.1
2022-10-05T12:21:32.158Z,2
2022-10-05T12:22:48.409Z,2.7
2022-10-05T12:24:04.645Z,2
2022-10-05T12:25:20.878Z,1.9
2022-10-05T12:26:37.121Z,1.9
2022-10-05T12:27:53.361Z,1.9
2022-10-05T12:29:09.596Z,2.1
2022-10-05T12:30:24.857Z,1.8
2022-10-05T12:31:41.083Z,2
2022-10-05T12:32:57.334Z,2.2
2022-10-05T12:34:13.567Z,1.9
2022-10-05T12:35:29.818Z,1.8
2022-10-05T12:36:46.048Z,1.7
2022-10-05T12:38:02.284Z,1.7
2022-10-05T12:39:18.520Z,1.9
2022-10-05T12:40:34.761Z,2.2
2022-10-05T12:41:51.002Z,2
2022-10-05T12:43:07.237Z,2.1
2022-10-05T12:44:23.488Z,1.9
2022-10-05T12:45:39.723Z,2
2022-10-05T12:46:54.985Z,1.7
2022-10-05T12:48:11.219Z,1.6
2022-10-05T12:49:27.445Z,1.8
2022-10-05T12:50:43.691Z,1.5
2022-10-05T12:51:59.937Z,1.7
2022-10-05T12:53:16.162Z,1.7
2022-10-05T12:54:32.412Z,1.8
2022-10-05T12:55:48.649Z,1.6
2022-10-05T12:57:04.888Z,1.7
2022-10-05T12:58:21.122Z,1.7
2022-10-05T12:59:37.365Z,1.7
2022-10-05T13:00:53.613Z,1.6
2022-10-05T13:02:09.833Z,1.6
2022-10-05T13:03:25.086Z,1.8
2022-10-05T13:04:41.327Z,2
2022-10-05T13:05:57.568Z,1.7
2022-10-05T13:07:13.802Z,1.8
2022-10-05T13:08:30.047Z,1.9
2022-10-05T13:09:46.287Z,1.5
2022-10-05T13:11:02.519Z,1.9
2022-10-05T13:12:18.766Z,1.8
2022-10-05T13:13:35.007Z,2.1
2022-10-05T13:14:51.233Z,1.9
2022-10-05T13:16:07.475Z,1.9
2022-10-05T13:17:23.726Z,1.7
2022-10-05T13:18:39.954Z,1.9
2022-10-05T13:19:55.208Z,1.9
2022-10-05T13:21:11.434Z,1.8
2022-10-05T13:22:27.688Z,1.7
2022-10-05T13:23:43.927Z,2.2
2022-10-05T13:25:00.161Z,1.8
2022-10-05T13:26:16.394Z,2.2
2022-10-05T13:27:32.625Z,2.1
2022-10-05T13:28:48.867Z,2
2022-10-05T13:30:05.122Z,1.9
2022-10-05T13:31:21.359Z,1.9
2022-10-05T13:32:37.584Z,2.1
2022-10-05T13:33:53.837Z,2.2
2022-10-05T13:35:10.054Z,2
2022-10-05T13:36:25.326Z,2.3
2022-10-05T13:37:41.550Z,1.9
2022-10-05T13:38:57.794Z,2.3
2022-10-05T13:40:14.027Z,2
2022-10-05T13:41:30.276Z,2.2
2022-10-05T13:42:46.501Z,2.3
2022-10-05T13:44:02.754Z,2.2
2022-10-05T13:45:18.986Z,2.1
2022-10-05T13:46:35.224Z,2.3
2022-10-05T13:47:51.468Z,2.2
2022-10-05T13:49:07.705Z,2.2
2022-10-05T13:50:23.935Z,2.2
2022-10-05T13:51:40.191Z,2.3
2022-10-05T13:52:55.434Z,2.4
2022-10-05T13:54:11.670Z,2.6
2022-10-05T13:55:27.898Z,2.4
2022-10-05T13:56:44.155Z,2
2022-10-05T13:58:00.393Z,2.2
2022-10-05T13:59:16.611Z,2.1
2022-10-05T14:00:32.861Z,2.3
2022-10-05T14:01:49.091Z,2
2022-10-05T14:03:05.327Z,2.7
2022-10-05T14:04:21.571Z,2.1
2022-10-05T14:05:37.818Z,2.1
2022-10-05T14:06:54.039Z,2.3
2022-10-05T14:08:10.288Z,2.1
2022-10-05T14:09:25.543Z,2.4
2022-10-05T14:10:41.778Z,2.1
2022-10-05T14:11:58.016Z,2.1
2022-10-05T14:13:14.256Z,2.1
2022-10-05T14:14:30.499Z,2.2
2022-10-05T14:15:46.729Z,2.4
2022-10-05T14:17:02.976Z,1.7
2022-10-05T14:18:19.218Z,2.2
2022-10-05T14:19:35.445Z,2.5
2022-10-05T14:20:51.684Z,2
2022-10-05T14:22:07.915Z,1.9
2022-10-05T14:23:24.162Z,1.8
2022-10-05T14:24:40.399Z,2
2022-10-05T14:25:55.664Z,1.7
2022-10-05T14:27:11.903Z,1.6
2022-10-05T14:28:28.133Z,1.7
2022-10-05T14:29:44.390Z,1.5
2022-10-05T14:31:00.619Z,1.5
2022-10-05T14:32:16.852Z,1.7
2022-10-05T14:33:33.083Z,1.5
2022-10-05T14:34:49.331Z,1.6
2022-10-05T14:36:05.557Z,1.5
2022-10-05T14:37:21.814Z,1.5
2022-10-05T14:38:38.037Z,1.4
2022-10-05T14:39:54.272Z,1.5
2022-10-05T14:41:10.511Z,1.4
2022-10-05T14:42:25.778Z,1.4
2022-10-05T14:43:42.004Z,1.6
2022-10-05T14:44:58.256Z,1.5
2022-10-05T14:46:14.505Z,1.4
2022-10-05T14:47:30.734Z,1.3
2022-10-05T14:48:46.963Z,1.3
2022-10-05T14:50:03.209Z,1.5
2022-10-05T14:51:19.457Z,1.4
2022-10-05T14:52:35.694Z,1.4
2022-10-05T14:53:51.918Z,1.3
2022-10-05T14:55:08.165Z,1.5
2022-10-05T14:56:24.394Z,1.6
2022-10-05T14:57:40.647Z,1.4
2022-10-05T14:58:55.882Z,1.3
2022-10-05T15:00:12.125Z,1.6
2022-10-05T15:01:28.379Z,1.8
2022-10-05T15:02:44.604Z,1.5
2022-10-05T15:04:00.842Z,1.7
2022-10-05T15:05:17.082Z,1.5
2022-10-05T15:06:33.330Z,1.8
2022-10-05T15:07:49.561Z,1.4
2022-10-05T15:09:05.793Z,1.4
2022-10-05T15:10:22.044Z,1.5
2022-10-05T15:11:38.280Z,1.6
2022-10-05T15:12:54.523Z,1.6
2022-10-05T15:14:10.753Z,1.6
2022-10-05T15:15:26.007Z,1.7
2022-10-05T15:16:42.245Z,1.5
2022-10-05T15:17:58.489Z,1.6
2022-10-05T15:19:14.743Z,1.6
2022-10-05T15:20:30.970Z,1.9
2022-10-05T15:21:47.207Z,1.8
2022-10-05T15:23:03.430Z,1.5
2022-10-05T15:24:19.689Z,1.6
2022-10-05T15:25:35.919Z,1.6
2022-10-05T15:26:52.152Z,1.5
2022-10-05T15:28:08.399Z,1.6
2022-10-05T15:29:24.636Z,1.7
2022-10-05T15:30:40.868Z,1.6
2022-10-05T15:31:56.116Z,1.5
2022-10-05T15:33:12.352Z,1.5
2022-10-05T15:34:28.591Z,2
2022-10-05T15:35:44.836Z,1.5
2022-10-05T15:37:01.079Z,1.6
2022-10-05T15:38:17.304Z,1.6
2022-10-05T15:39:32.585Z,1.4
2022-10-05T15:40:48.828Z,1.6
2022-10-05T15:42:05.058Z,1.6
2022-10-05T15:43:21.282Z,1.6
2022-10-05T15:44:37.517Z,1.9
2022-10-05T15:45:53.765Z,1.5
2022-10-05T15:47:09.997Z,1.6
2022-10-05T15:48:26.256Z,1.5
2022-10-05T15:49:42.489Z,1.6
2022-10-05T15:50:58.719Z,1.6
2022-10-05T15:52:14.950Z,1.6
2022-10-05T15:53:31.208Z,1.5
2022-10-05T15:54:47.443Z,1.8
2022-10-05T15:56:02.686Z,1.6
2022-10-05T15:57:18.938Z,1.6
2022-10-05T15:58:35.173Z,1.7
2022-10-05T15:59:51.413Z,1.5
2022-10-05T16:01:07.645Z,1.5
2022-10-05T16:02:23.882Z,1.7
2022-10-05T16:03:40.131Z,1.7
2022-10-05T16:04:56.369Z,1.6
2022-10-05T16:06:12.606Z,1.6
2022-10-05T16:07:28.853Z,1.6
2022-10-05T16:08:45.068Z,1.7
2022-10-05T16:10:01.322Z,1.8
2022-10-05T16:11:17.560Z,1.6
2022-10-05T16:12:32.800Z,1.9
2022-10-05T16:13:49.059Z,1.5
2022-10-05T16:15:05.287Z,1.4
2022-10-05T16:16:21.528Z,1.6
2022-10-05T16:17:37.775Z,2
2022-10-05T16:18:54.009Z,1.8
2022-10-05T16:20:10.238Z,1.7
2022-10-05T16:21:26.487Z,1.9
2022-10-05T16:22:42.729Z,1.6
2022-10-05T16:23:58.969Z,1.8
2022-10-05T16:25:15.197Z,1.8
2022-10-05T16:26:31.436Z,2.2
2022-10-05T16:27:47.684Z,1.8
2022-10-05T16:29:02.939Z,1.7
2022-10-05T16:30:19.181Z,1.7
2022-10-05T16:31:35.413Z,1.8
2022-10-05T16:32:51.657Z,1.7
2022-10-05T16:34:07.891Z,1.7
2022-10-05T16:35:24.141Z,1.7
2022-10-05T16:36:40.376Z,1.7
2022-10-05T16:37:56.618Z,2
2022-10-05T16:39:12.859Z,1.8
2022-10-05T16:40:29.089Z,1.9
2022-10-05T16:41:45.322Z,1.7
2022-10-05T16:43:01.572Z,2
2022-10-05T16:44:17.810Z,1.9
2022-10-05T16:45:33.057Z,1.8
2022-10-05T16:46:49.295Z,1.7
2022-10-05T16:48:05.541Z,2
2022-10-05T16:49:21.778Z,2
2022-10-05T16:50:38.030Z,1.8
2022-10-05T16:51:54.271Z,1.8
2022-10-05T16:53:10.500Z,2.1
2022-10-05T16:54:26.735Z,2.2
2022-10-05T16:55:43.000Z,2.1
2022-10-05T16:56:59.233Z,1.9
2022-10-05T16:58:15.472Z,1.8
2022-10-05T16:59:31.700Z,2.1
2022-10-05T17:00:47.941Z,2.1
2022-10-05T17:02:03.195Z,2.2
2022-10-05T17:03:19.432Z,2.1
2022-10-05T17:04:35.688Z,2.3
2022-10-05T17:05:51.916Z,2
2022-10-05T17:07:08.161Z,2.1
2022-10-05T17:08:24.408Z,2.5
2022-10-05T17:09:40.698Z,2.2
2022-10-05T17:10:56.991Z,2.2
2022-10-05T17:12:13.223Z,2.3
2022-10-05T17:13:29.479Z,2.1
2022-10-05T17:14:45.772Z,2.3
2022-10-05T17:16:02.068Z,2.6
2022-10-05T17:17:18.293Z,2.3
2022-10-05T17:18:33.621Z,2.7
2022-10-05T17:19:49.911Z,2.2
2022-10-05T17:21:06.211Z,2.3
2022-10-05T17:22:22.489Z,2.4
2022-10-05T17:23:38.786Z,2.4
2022-10-05T17:24:55.092Z,2.8
2022-10-05T17:26:11.380Z,2.3
2022-10-05T17:27:27.676Z,2.4
2022-10-05T17:28:43.961Z,2.3
2022-10-05T17:30:00.266Z,2.5
2022-10-05T17:31:16.558Z,2.4
2022-10-05T17:32:32.849Z,2.5
2022-10-05T17:33:49.148Z,2.7
2022-10-05T17:35:04.446Z,2.2